createdAt,value
2022-12-19T00:01:52.817Z,1.80
2022-12-19T00:04:21.299Z,2.40
2022-12-19T00:06:48.294Z,2.57
2022-12-19T00:09:15.610Z,1.50
2022-12-19T00:11:42.828Z,1.83
2022-12-19T00:14:12.849Z,1.90
2022-12-19T00:16:39.857Z,2.00
2022-12-19T00:19:07.722Z,3.30
2022-12-19T00:21:35.449Z,2.00
2022-12-19T00:24:09.875Z,1.57
2022-12-19T00:26:49.116Z,2.10
2022-12-19T00:29:16.349Z,1.80
2022-12-19T00:31:43.703Z,2.23
2022-12-19T00:34:11.035Z,2.17
2022-12-19T00:36:37.948Z,1.50
2022-12-19T00:39:08.308Z,1.67
2022-12-19T00:41:41.304Z,1.50
2022-12-19T00:44:14.209Z,1.83
2022-12-19T00:46:43.097Z,2.33
2022-12-19T00:49:12.555Z,1.20
2022-12-19T00:51:39.454Z,1.70
2022-12-19T00:54:08.052Z,1.73
2022-12-19T00:56:37.502Z,1.97
2022-12-19T00:59:05.054Z,2.27
2022-12-19T01:01:35.317Z,1.40
2022-12-19T01:06:58.039Z,2.37
2022-12-19T01:09:28.740Z,1.53
2022-12-19T01:12:14.021Z,2.10
2022-12-19T01:14:40.963Z,1.80
2022-12-19T01:17:07.912Z,1.53
2022-12-19T01:19:38.957Z,1.90
2022-12-19T01:22:09.093Z,1.90
2022-12-19T01:24:36.618Z,1.33
2022-12-19T01:27:03.608Z,1.60
2022-12-19T01:29:31.984Z,1.30
2022-12-19T01:32:01.167Z,1.60
2022-12-19T01:34:28.200Z,1.43
2022-12-19T01:36:55.108Z,1.53
2022-12-19T01:39:22.173Z,1.43
2022-12-19T01:41:51.539Z,2.00
2022-12-19T01:44:18.418Z,1.40
2022-12-19T01:46:50.350Z,1.97
2022-12-19T01:49:30.102Z,1.80
2022-12-19T01:52:00.221Z,2.13
2022-12-19T01:54:36.343Z,2.30
2022-12-19T01:57:06.842Z,1.23
2022-12-19T01:59:45.071Z,1.53
2022-12-19T02:02:17.839Z,1.53
2022-12-19T02:04:47.370Z,1.80
2022-12-19T02:07:16.600Z,1.17
2022-12-19T02:09:47.011Z,1.27
2022-12-19T02:12:14.872Z,1.63
2022-12-19T02:14:43.664Z,1.90
2022-12-19T02:17:25.149Z,1.87
2022-12-19T02:20:10.462Z,1.57
2022-12-19T02:23:04.648Z,1.73
2022-12-19T02:25:56.917Z,1.57
2022-12-19T02:29:01.933Z,1.70
2022-12-19T02:31:54.212Z,1.50
2022-12-19T02:34:44.552Z,1.30
2022-12-19T02:37:26.416Z,1.90
2022-12-19T02:40:05.749Z,2.00
2022-12-19T02:42:37.867Z,1.60
2022-12-19T02:45:08.219Z,2.50
2022-12-19T02:47:36.306Z,2.37
2022-12-19T02:50:04.617Z,2.13
2022-12-19T02:52:32.084Z,1.90
2022-12-19T02:55:18.779Z,2.43
2022-12-19T02:58:14.276Z,1.70
2022-12-19T03:00:58.082Z,1.87
2022-12-19T03:03:31.168Z,2.40
2022-12-19T03:06:35.029Z,2.53
2022-12-19T03:09:12.904Z,1.80
2022-12-19T03:11:42.313Z,1.87
2022-12-19T03:14:16.580Z,2.20
2022-12-19T03:16:43.850Z,1.83
2022-12-19T03:19:14.027Z,1.80
2022-12-19T03:21:53.342Z,1.93
2022-12-19T03:24:20.438Z,1.60
2022-12-19T03:26:54.918Z,1.57
2022-12-19T03:29:32.841Z,2.03
2022-12-19T03:32:04.085Z,1.47
2022-12-19T03:34:40.884Z,1.83
2022-12-19T03:37:16.571Z,2.30
2022-12-19T03:39:49.135Z,1.30
2022-12-19T03:42:36.658Z,1.83
2022-12-19T03:45:06.320Z,2.23
2022-12-19T03:47:43.090Z,1.60
2022-12-19T03:50:10.799Z,1.70
2022-12-19T03:52:43.541Z,2.10
2022-12-19T03:55:24.613Z,2.57
2022-12-19T03:58:01.156Z,1.63
2022-12-19T04:00:28.743Z,1.50
2022-12-19T04:02:58.838Z,1.90
2022-12-19T04:05:28.132Z,1.90
2022-12-19T04:08:00.191Z,1.93
2022-12-19T04:10:28.523Z,2.23
2022-12-19T04:13:11.993Z,1.73
2022-12-19T04:16:03.768Z,1.80
2022-12-19T04:18:31.949Z,1.30
2022-12-19T04:21:08.783Z,1.67
2022-12-19T04:23:45.470Z,2.53
2022-12-19T04:26:16.098Z,2.40
2022-12-19T04:28:50.417Z,2.40
2022-12-19T04:31:20.065Z,3.03
2022-12-19T04:33:47.138Z,2.30
2022-12-19T04:36:14.323Z,2.97
2022-12-19T04:38:41.780Z,2.97
2022-12-19T04:41:08.923Z,3.10
2022-12-19T04:43:36.046Z,2.10
2022-12-19T04:46:03.567Z,2.60
2022-12-19T04:48:30.639Z,2.47
2022-12-19T04:50:57.814Z,2.90
2022-12-19T04:53:24.986Z,2.30
2022-12-19T04:55:59.854Z,2.83
2022-12-19T04:58:27.251Z,2.60
2022-12-19T05:00:54.241Z,3.97
2022-12-19T05:03:21.382Z,4.33
2022-12-19T05:05:48.284Z,3.03
2022-12-19T05:08:15.264Z,4.50
2022-12-19T05:10:42.249Z,3.50
2022-12-19T05:13:09.611Z,4.07
2022-12-19T05:15:36.565Z,4.47
2022-12-19T05:18:04.232Z,4.00
2022-12-19T05:20:31.141Z,5.53
2022-12-19T05:23:00.780Z,5.43
2022-12-19T05:25:30.125Z,5.63
2022-12-19T05:27:57.078Z,5.43
2022-12-19T05:30:24.617Z,6.67
2022-12-19T05:32:52.990Z,4.00
2022-12-19T05:35:19.914Z,5.10
2022-12-19T05:37:46.869Z,5.20
2022-12-19T05:40:13.884Z,5.70
2022-12-19T05:42:40.849Z,7.20
2022-12-19T05:45:09.427Z,5.07
2022-12-19T05:47:38.041Z,6.67
2022-12-19T05:50:06.065Z,7.87
2022-12-19T05:52:33.116Z,7.00
2022-12-19T05:55:00.216Z,6.87
2022-12-19T05:57:27.233Z,7.30
2022-12-19T05:59:54.204Z,8.83
2022-12-19T06:02:21.557Z,7.27
2022-12-19T06:04:48.627Z,7.93
2022-12-19T06:07:20.730Z,7.60
2022-12-19T06:09:48.043Z,7.57
2022-12-19T06:12:15.872Z,8.57
2022-12-19T06:14:42.852Z,8.87
2022-12-19T06:17:10.115Z,9.23
2022-12-19T06:19:38.283Z,7.13
2022-12-19T06:22:05.331Z,9.07
2022-12-19T06:24:32.480Z,8.60
2022-12-19T06:26:59.818Z,9.50
2022-12-19T06:29:26.988Z,7.67
2022-12-19T06:31:54.050Z,7.40
2022-12-19T06:34:39.868Z,9.70
2022-12-19T06:37:08.484Z,8.63
2022-12-19T06:39:35.789Z,8.60
2022-12-19T06:42:21.262Z,8.43
2022-12-19T06:44:48.223Z,8.63
2022-12-19T06:47:15.304Z,7.97
2022-12-19T06:49:42.940Z,9.10
2022-12-19T06:52:09.872Z,9.03
2022-12-19T06:54:36.792Z,8.10
2022-12-19T06:57:03.775Z,7.20
2022-12-19T06:59:30.861Z,8.10
2022-12-19T07:02:03.353Z,8.17
2022-12-19T07:04:52.395Z,8.90
2022-12-19T07:07:20.047Z,8.40
2022-12-19T07:09:47.073Z,9.30
2022-12-19T07:12:14.059Z,8.47
2022-12-19T07:14:41.000Z,8.40
2022-12-19T07:17:08.012Z,8.87
2022-12-19T07:19:35.901Z,9.03
2022-12-19T07:22:04.269Z,7.53
2022-12-19T07:24:31.640Z,8.43
2022-12-19T07:26:58.771Z,7.03
2022-12-19T07:29:25.964Z,7.10
2022-12-19T07:31:54.940Z,9.07
2022-12-19T07:34:22.159Z,8.07
2022-12-19T07:36:49.129Z,8.73
2022-12-19T07:39:17.058Z,7.30
2022-12-19T07:41:44.057Z,8.33
2022-12-19T07:44:13.418Z,8.43
2022-12-19T07:46:40.629Z,6.40
2022-12-19T07:49:07.837Z,7.93
2022-12-19T07:51:34.901Z,8.83
2022-12-19T07:54:02.329Z,8.80
2022-12-19T07:56:29.679Z,6.10
2022-12-19T07:58:58.285Z,8.70
2022-12-19T08:01:25.602Z,8.17
2022-12-19T08:03:55.995Z,8.47
2022-12-19T08:06:23.638Z,7.77
2022-12-19T08:08:51.045Z,7.50
2022-12-19T08:11:27.468Z,7.77
2022-12-19T08:13:55.317Z,6.80
2022-12-19T08:16:26.915Z,6.10
2022-12-19T08:18:55.714Z,5.50
2022-12-19T08:21:23.554Z,6.93
2022-12-19T08:23:52.232Z,5.90
2022-12-19T08:26:26.274Z,5.33
2022-12-19T08:28:55.707Z,5.13
2022-12-19T08:31:25.337Z,3.47
2022-12-19T08:33:53.863Z,5.83
2022-12-19T08:36:21.653Z,4.37
2022-12-19T08:38:49.657Z,4.30
2022-12-19T08:41:18.086Z,5.03
2022-12-19T08:43:50.807Z,5.00
2022-12-19T08:46:19.880Z,3.83
2022-12-19T08:48:47.180Z,4.00
2022-12-19T08:51:16.238Z,2.17
2022-12-19T08:53:45.227Z,3.50
2022-12-19T08:56:15.630Z,4.40
2022-12-19T08:58:43.570Z,3.80
2022-12-19T09:01:16.730Z,2.53
2022-12-19T09:03:45.394Z,2.67
2022-12-19T09:06:31.551Z,2.80
2022-12-19T09:09:00.498Z,2.93
2022-12-19T09:11:28.294Z,3.57
2022-12-19T09:13:57.546Z,2.70
2022-12-19T09:16:27.074Z,3.97
2022-12-19T09:18:57.161Z,3.20
2022-12-19T09:21:25.588Z,3.27
2022-12-19T09:24:03.466Z,4.23
2022-12-19T09:26:34.830Z,3.63
2022-12-19T09:29:02.318Z,3.87
2022-12-19T09:31:30.118Z,3.03
2022-12-19T09:33:58.836Z,4.53
2022-12-19T09:36:26.182Z,4.10
2022-12-19T09:38:58.239Z,4.87
2022-12-19T09:41:31.652Z,10.10
2022-12-19T09:44:17.587Z,4.60
2022-12-19T09:46:50.861Z,6.83
2022-12-19T09:49:41.875Z,5.23
2022-12-19T09:52:21.758Z,5.30
2022-12-19T09:55:05.752Z,4.53
2022-12-19T09:57:42.163Z,3.80
2022-12-19T10:00:14.796Z,5.43
2022-12-19T10:02:57.078Z,5.97
2022-12-19T10:06:46.098Z,5.63
2022-12-19T10:09:49.985Z,5.83
2022-12-19T10:12:42.983Z,7.77
2022-12-19T10:15:12.506Z,6.23
2022-12-19T10:18:05.729Z,6.13
2022-12-19T10:20:44.443Z,6.57
2022-12-19T10:23:17.154Z,7.23
2022-12-19T10:26:07.091Z,7.10
2022-12-19T10:29:13.609Z,8.00
2022-12-19T10:32:24.863Z,7.80
2022-12-19T10:34:53.726Z,6.57
2022-12-19T10:37:35.176Z,7.70
2022-12-19T10:40:30.964Z,8.03
2022-12-19T10:43:10.886Z,7.73
2022-12-19T10:45:47.440Z,7.03
2022-12-19T10:48:30.201Z,5.97
2022-12-19T10:51:06.179Z,8.57
2022-12-19T10:53:43.935Z,8.97
2022-12-19T10:56:37.113Z,9.27
2022-12-19T10:59:20.835Z,7.87
2022-12-19T11:02:21.020Z,5.90
2022-12-19T11:05:05.948Z,6.90
2022-12-19T11:07:36.168Z,7.73
2022-12-19T11:11:41.386Z,7.17
2022-12-19T11:17:33.614Z,8.07
2022-12-19T11:25:52.284Z,7.63
2022-12-19T11:29:15.976Z,8.70
2022-12-19T11:29:24.950Z,7.97
2022-12-19T11:29:30.013Z,6.83
2022-12-19T11:30:43.748Z,7.57
2022-12-19T11:34:14.010Z,8.20
2022-12-19T11:36:55.921Z,8.57
2022-12-19T11:39:32.778Z,8.30
2022-12-19T11:42:02.905Z,9.33
2022-12-19T11:44:36.515Z,9.30
2022-12-19T11:47:41.234Z,7.67
2022-12-19T11:50:14.205Z,8.13
2022-12-19T11:53:14.897Z,7.67
2022-12-19T11:55:47.710Z,8.43
2022-12-19T11:58:15.087Z,7.50
2022-12-19T12:00:55.906Z,8.13
2022-12-19T12:03:40.949Z,9.60
2022-12-19T12:06:31.314Z,4.87
2022-12-19T12:11:03.702Z,8.23
2022-12-19T12:15:07.416Z,9.10
2022-12-19T12:25:48.641Z,8.07
2022-12-19T12:31:01.331Z,7.07
2022-12-19T12:31:15.936Z,8.30
2022-12-19T12:31:18.152Z,7.80
2022-12-19T12:31:49.076Z,10.47
2022-12-19T12:32:00.367Z,8.30
2022-12-19T12:35:46.564Z,7.40
2022-12-19T12:40:23.768Z,10.07
2022-12-19T12:43:15.862Z,7.83
2022-12-19T12:45:47.582Z,8.50
2022-12-19T12:48:36.965Z,7.83
2022-12-19T12:51:05.543Z,8.80
2022-12-19T12:53:36.031Z,8.77
2022-12-19T12:56:07.369Z,8.27
2022-12-19T12:58:54.171Z,8.43
2022-12-19T13:01:34.115Z,7.33
2022-12-19T13:04:13.450Z,7.80
2022-12-19T13:06:43.068Z,8.97
2022-12-19T13:09:10.562Z,8.17
2022-12-19T13:12:13.047Z,8.57
2022-12-19T13:14:42.314Z,8.27
2022-12-19T13:17:18.390Z,8.73
2022-12-19T13:20:39.635Z,8.87
2022-12-19T13:23:22.820Z,9.07
2022-12-19T13:25:54.436Z,11.00
2022-12-19T13:28:21.624Z,9.43
2022-12-19T13:31:18.674Z,9.17
2022-12-19T13:33:56.213Z,5.63
2022-12-19T13:39:47.685Z,8.93
2022-12-19T13:40:07.473Z,9.73
2022-12-19T13:43:10.694Z,9.07
2022-12-19T13:45:41.495Z,8.93
2022-12-19T13:48:16.811Z,7.97
2022-12-19T13:50:48.976Z,9.37
2022-12-19T13:53:23.918Z,9.60
2022-12-19T13:56:01.553Z,8.77
2022-12-19T13:58:45.697Z,7.73
2022-12-19T14:01:27.913Z,9.17
2022-12-19T14:04:11.003Z,8.93
2022-12-19T14:06:44.675Z,8.57
2022-12-19T14:11:34.328Z,7.30
2022-12-19T14:13:52.096Z,8.83
2022-12-19T14:15:52.469Z,6.70
2022-12-19T14:18:45.107Z,8.27
2022-12-19T14:22:10.256Z,8.17
2022-12-19T14:24:23.521Z,7.93
2022-12-19T14:28:17.341Z,9.57
2022-12-19T14:30:26.578Z,9.67
2022-12-19T14:33:47.345Z,8.27
2022-12-19T14:36:12.188Z,8.27
2022-12-19T14:39:24.645Z,8.70
2022-12-19T14:42:04.128Z,8.17
2022-12-19T14:53:51.145Z,7.67
2022-12-19T14:54:18.065Z,8.77
2022-12-19T14:54:39.877Z,8.07
2022-12-19T14:54:52.804Z,6.27
2022-12-19T14:56:54.430Z,9.33
2022-12-19T14:59:05.873Z,8.87
2022-12-19T15:01:36.832Z,9.37
2022-12-19T15:04:53.510Z,8.27
2022-12-19T15:07:23.758Z,9.57
2022-12-19T15:11:02.452Z,8.30
2022-12-19T15:14:57.901Z,9.57
2022-12-19T15:16:01.400Z,10.00
2022-12-19T15:18:39.650Z,10.37
2022-12-19T15:21:12.923Z,10.13
2022-12-19T15:23:42.240Z,9.40
2022-12-19T15:26:28.885Z,7.17
2022-12-19T15:28:57.605Z,8.40
2022-12-19T15:31:41.046Z,6.60
2022-12-19T15:36:58.570Z,9.17
2022-12-19T15:39:29.847Z,9.57
2022-12-19T15:42:00.978Z,9.20
2022-12-19T15:44:35.090Z,8.37
2022-12-19T15:47:05.645Z,9.00
2022-12-19T15:49:35.540Z,9.30
2022-12-19T15:52:03.106Z,9.00
2022-12-19T15:57:29.326Z,10.17
2022-12-19T16:00:02.648Z,9.00
2022-12-19T16:03:04.487Z,8.43
2022-12-19T16:05:20.447Z,9.00
2022-12-19T16:07:47.700Z,9.30
2022-12-19T16:10:15.647Z,9.43
2022-12-19T16:12:55.750Z,9.17
2022-12-19T16:15:32.134Z,9.30
2022-12-19T16:18:01.660Z,9.27
2022-12-19T16:20:37.827Z,9.87
2022-12-19T16:23:05.396Z,8.80
2022-12-19T16:25:43.648Z,9.00
2022-12-19T16:28:35.291Z,9.63
2022-12-19T16:31:15.015Z,9.67
2022-12-19T16:33:42.588Z,8.83
2022-12-19T16:36:10.101Z,10.83
2022-12-19T16:38:37.535Z,11.97
2022-12-19T16:41:08.179Z,9.73
2022-12-19T16:43:55.769Z,10.43
2022-12-19T16:46:30.993Z,9.87
2022-12-19T16:48:58.744Z,7.93
2022-12-19T16:51:28.037Z,10.40
2022-12-19T16:54:09.297Z,9.50
2022-12-19T16:56:41.905Z,7.20
2022-12-19T16:59:19.475Z,9.23
2022-12-19T17:01:47.112Z,11.17
2022-12-19T17:04:16.491Z,10.33
2022-12-19T17:06:43.729Z,8.03
2022-12-19T17:09:22.552Z,8.97
2022-12-19T17:12:01.130Z,8.13
2022-12-19T17:14:32.075Z,10.53
2022-12-19T17:17:00.251Z,9.27
2022-12-19T17:19:37.748Z,10.27
2022-12-19T17:22:12.093Z,10.40
2022-12-19T17:24:41.027Z,11.60
2022-12-19T17:27:08.678Z,10.40
2022-12-19T17:29:35.686Z,12.10
2022-12-19T17:32:03.602Z,13.30
2022-12-19T17:34:35.018Z,10.53
2022-12-19T17:37:05.287Z,10.07
2022-12-19T17:39:34.715Z,12.10
2022-12-19T17:42:23.856Z,11.00
2022-12-19T17:44:51.827Z,10.47
2022-12-19T17:47:20.219Z,11.07
2022-12-19T17:49:48.341Z,11.17
2022-12-19T17:52:20.246Z,9.83
2022-12-19T17:54:47.782Z,12.47
2022-12-19T17:57:16.540Z,11.47
2022-12-19T17:59:46.281Z,10.80
2022-12-19T18:02:26.817Z,10.07
2022-12-19T18:04:54.081Z,11.00
2022-12-19T18:07:21.425Z,10.80
2022-12-19T18:09:48.354Z,12.27
2022-12-19T18:12:15.497Z,11.67
2022-12-19T18:14:42.994Z,10.60
2022-12-19T18:17:17.610Z,11.17
2022-12-19T18:19:44.705Z,11.43
2022-12-19T18:22:15.049Z,12.17
2022-12-19T18:24:42.040Z,11.37
2022-12-19T18:27:09.062Z,11.50
2022-12-19T18:29:36.096Z,11.20
2022-12-19T18:32:06.163Z,11.13
2022-12-19T18:34:34.088Z,11.77
2022-12-19T18:37:02.160Z,11.33
2022-12-19T18:39:29.611Z,10.87
2022-12-19T18:41:56.537Z,10.37
2022-12-19T18:44:23.616Z,8.37
2022-12-19T18:46:52.402Z,11.97
2022-12-19T18:49:20.043Z,10.90
2022-12-19T18:51:47.392Z,12.73
2022-12-19T18:54:19.981Z,12.30
2022-12-19T18:56:47.581Z,11.43
2022-12-19T18:59:14.600Z,11.40
2022-12-19T19:01:47.199Z,8.03
2022-12-19T19:04:18.090Z,12.27
2022-12-19T19:06:50.983Z,11.20
2022-12-19T19:09:20.556Z,11.97
2022-12-19T19:11:48.286Z,8.23
2022-12-19T19:14:15.304Z,11.33
2022-12-19T19:16:42.346Z,12.77
2022-12-19T19:19:14.372Z,11.03
2022-12-19T19:21:42.920Z,12.40
2022-12-19T19:24:16.549Z,10.87
2022-12-19T19:26:43.723Z,10.07
2022-12-19T19:29:11.105Z,12.50
2022-12-19T19:31:40.974Z,10.17
2022-12-19T19:34:29.507Z,7.13
2022-12-19T19:37:00.144Z,11.73
2022-12-19T19:39:28.184Z,10.77
2022-12-19T19:41:56.430Z,10.90
2022-12-19T19:44:23.458Z,10.67
2022-12-19T19:46:50.595Z,11.23
2022-12-19T19:49:17.800Z,11.90
2022-12-19T19:51:45.813Z,11.93
2022-12-19T19:54:12.766Z,9.73
2022-12-19T19:56:41.093Z,14.23
2022-12-19T19:59:08.359Z,11.23
2022-12-19T20:01:35.660Z,12.87
2022-12-19T20:04:02.996Z,11.27
2022-12-19T20:06:30.115Z,12.63
2022-12-19T20:08:57.140Z,13.13
2022-12-19T20:11:24.217Z,11.73
2022-12-19T20:13:51.364Z,12.30
2022-12-19T20:16:19.619Z,10.77
2022-12-19T20:18:50.020Z,12.20
2022-12-19T20:21:18.584Z,11.87
2022-12-19T20:23:47.181Z,11.17
2022-12-19T20:26:16.620Z,9.53
2022-12-19T20:28:48.835Z,14.37
2022-12-19T20:31:21.249Z,11.93
2022-12-19T20:33:49.116Z,10.43
2022-12-19T20:36:17.079Z,11.37
2022-12-19T20:38:44.161Z,10.90
2022-12-19T20:41:11.324Z,8.97
2022-12-19T20:43:38.846Z,10.27
2022-12-19T20:46:09.150Z,8.23
2022-12-19T20:48:36.296Z,10.67
2022-12-19T20:51:04.732Z,12.03
2022-12-19T20:53:33.593Z,9.53
2022-12-19T20:56:02.719Z,8.60
2022-12-19T20:58:30.922Z,11.73
2022-12-19T21:01:14.182Z,10.60
2022-12-19T21:03:42.048Z,11.33
2022-12-19T21:06:12.034Z,10.00
2022-12-19T21:08:39.843Z,9.80
2022-12-19T21:11:09.772Z,8.77
2022-12-19T21:13:37.516Z,9.00
2022-12-19T21:16:08.993Z,10.23
2022-12-19T21:18:37.637Z,9.90
2022-12-19T21:21:06.477Z,9.73
2022-12-19T21:23:34.013Z,8.60
2022-12-19T21:26:06.559Z,9.53
2022-12-19T21:28:33.691Z,9.07
2022-12-19T21:31:04.364Z,10.93
2022-12-19T21:33:31.681Z,10.17
2022-12-19T21:36:04.750Z,10.30
2022-12-19T21:38:31.728Z,9.97
2022-12-19T21:41:03.368Z,10.00
2022-12-19T21:43:34.645Z,10.97
2022-12-19T21:46:10.305Z,10.43
2022-12-19T21:48:42.603Z,10.90
2022-12-19T21:51:12.973Z,10.20
2022-12-19T21:53:40.298Z,10.20
2022-12-19T21:56:37.436Z,11.40
2022-12-19T21:59:14.688Z,7.33
2022-12-19T22:01:42.813Z,10.77
2022-12-19T22:04:22.444Z,11.60
2022-12-19T22:06:51.454Z,9.10
2022-12-19T22:09:21.344Z,9.20
2022-12-19T22:11:49.968Z,10.30
2022-12-19T22:14:17.964Z,11.57
2022-12-19T22:16:45.412Z,9.10
2022-12-19T22:19:17.719Z,9.97
2022-12-19T22:21:48.788Z,10.37
2022-12-19T22:24:16.745Z,9.77
2022-12-19T22:26:44.048Z,10.63
2022-12-19T22:29:14.675Z,9.50
2022-12-19T22:31:42.194Z,10.10
2022-12-19T22:34:15.754Z,8.43
2022-12-19T22:36:43.824Z,10.27
2022-12-19T22:39:14.225Z,9.17
2022-12-19T22:41:42.455Z,7.57
2022-12-19T22:44:23.400Z,7.20
2022-12-19T22:46:51.422Z,8.40
2022-12-19T22:49:18.792Z,8.23
2022-12-19T22:51:45.865Z,8.83
2022-12-19T22:54:13.822Z,9.03
2022-12-19T22:56:42.995Z,7.87
2022-12-19T22:59:12.130Z,7.70
2022-12-19T23:01:43.834Z,7.70
2022-12-19T23:04:15.746Z,8.27
2022-12-19T23:06:43.892Z,8.47
2022-12-19T23:09:14.619Z,7.97
2022-12-19T23:11:44.302Z,9.10
2022-12-19T23:14:14.925Z,7.90
2022-12-19T23:16:43.211Z,8.70
2022-12-19T23:19:10.695Z,8.80
2022-12-19T23:21:38.564Z,9.17
2022-12-19T23:24:06.040Z,8.00
2022-12-19T23:26:37.147Z,8.07
2022-12-19T23:29:08.050Z,8.50
2022-12-19T23:31:35.919Z,8.57
2022-12-19T23:34:04.226Z,8.33
2022-12-19T23:39:18.532Z,7.97
2022-12-19T23:41:45.640Z,7.50
2022-12-19T23:44:18.464Z,7.70
2022-12-19T23:46:48.228Z,8.53
2022-12-19T23:49:16.740Z,7.00
2022-12-19T23:51:47.008Z,9.03
2022-12-19T23:54:13.944Z,7.47
2022-12-19T23:56:40.925Z,9.37
2022-12-19T23:59:08.995Z,8.50
